Adam, Oman
Current Conditions -  °F | °C
As of 2:50 AM on Wednesday 28 Jan 2015 (Local Time) from OOMS Reporting Station
Clear Clear  
Wind Chill: 63°   Ceiling: Unl
Heat Index: 63°   Visibility: 6mi
Dew Point: 52°   Wind: 2mph
Humidity: 68%   Direction: 240°WSW
Pressure: 30.03"   Gusts: NA
Location:  22.38°N, 57.52°E
Report Text: OOMS 272250Z 24002KT CAVOK 17/11 Q1017 NOSIG
Loading
Personal Weather Stations






























Interactive Weather Map New forecast layout! Learn more

10-Day Weather Forecast

Advertisements
Track Severe Weather on mobile